Time;durP1;ratioP1;P1;durP2;ratioP2;P2;SDS_P1;SDS_P2;PMS_P1;PMS_P2;Temp;Humidity;BMP_temperature;BMP_pressure;BME280_temperature;BME280_humidity;BME280_pressure;Samples;Min_cycle;Max_cycle;Signal;HPM_P1;HPM_P2
2021/12/18 00:01:29;;;;;;;11.00;7.03;;;;;;;;;;5073383;28;20052;-83
2021/12/18 00:03:55;;;;;;;13.65;7.50;;;;;;;;;;5063499;28;20480;-82
2021/12/18 00:06:21;;;;;;;12.30;7.40;;;;;;;;;;5064881;28;20029;-83
2021/12/18 00:08:48;;;;;;;14.10;7.30;;;;;;;;;;5054434;28;20481;-83
2021/12/18 00:11:14;;;;;;;12.50;7.25;;;;;;;;;;5056928;28;20132;-83
2021/12/18 00:13:40;;;;;;;10.98;7.20;;;;;;;;;;5066915;28;20407;-83
2021/12/18 00:16:07;;;;;;;19.10;10.43;;;;;;;;;;5058698;28;20025;-81
2021/12/18 00:18:34;;;;;;;13.57;7.60;;;;;;;;;;5052392;28;20033;-82
2021/12/18 00:21:00;;;;;;;12.00;6.88;;;;;;;;;;5052297;28;20041;-82
2021/12/18 00:23:26;;;;;;;13.57;7.63;;;;;;;;;;5065399;28;20506;-82
2021/12/18 00:25:52;;;;;;;11.48;6.05;;;;;;;;;;5055860;28;20444;-82
2021/12/18 00:28:17;;;;;;;13.95;7.03;;;;;;;;;;5051548;28;20060;-82
2021/12/18 00:30:43;;;;;;;15.23;7.45;;;;;;;;;;5053644;28;20413;-81
2021/12/18 00:33:09;;;;;;;12.48;5.88;;;;;;;;;;5051940;28;20032;-82
2021/12/18 00:35:35;;;;;;;17.02;10.02;;;;;;;;;;5053682;28;20048;-82
2021/12/18 00:38:06;;;;;;;14.15;8.80;;;;;;;;;;5053796;28;20060;-82
2021/12/18 00:40:44;;;;;;;11.55;7.57;;;;;;;;;;5051954;28;20435;-82
2021/12/18 00:43:31;;;;;;;13.15;8.95;;;;;;;;;;5063473;28;20029;-81
2021/12/18 00:45:57;;;;;;;11.55;7.20;;;;;;;;;;5068744;28;20028;-81
2021/12/18 00:48:23;;;;;;;18.90;8.40;;;;;;;;;;5051797;28;20040;-82
2021/12/18 00:50:49;;;;;;;12.02;6.30;;;;;;;;;;5052382;28;20032;-82
2021/12/18 00:53:14;;;;;;;15.13;8.75;;;;;;;;;;5061424;28;20427;-82
2021/12/18 00:55:40;;;;;;;10.85;5.95;;;;;;;;;;5073393;28;20020;-82
2021/12/18 00:58:06;;;;;;;12.45;6.47;;;;;;;;;;5063354;28;20028;-81
2021/12/18 01:00:32;;;;;;;16.25;7.97;;;;;;;;;;5051816;28;20029;-82
2021/12/18 01:03:01;;;;;;;10.63;6.03;;;;;;;;;;5062323;28;20067;-83
2021/12/18 01:05:33;;;;;;;9.17;5.87;;;;;;;;;;5052657;28;20025;-84
2021/12/18 01:08:00;;;;;;;11.65;5.72;;;;;;;;;;5058732;28;20021;-83
2021/12/18 01:10:46;;;;;;;10.80;7.00;;;;;;;;;;5051600;28;20066;-83
2021/12/18 01:13:18;;;;;;;13.27;6.75;;;;;;;;;;5051223;28;20029;-83
2021/12/18 01:15:49;;;;;;;10.40;7.25;;;;;;;;;;5069701;28;20021;-83
2021/12/18 01:23:42;;;;;;;15.38;8.15;;;;;;;;;;5052960;28;20570;-83
2021/12/18 01:26:08;;;;;;;10.75;5.53;;;;;;;;;;5058661;28;20025;-83
2021/12/18 01:28:33;;;;;;;19.65;8.95;;;;;;;;;;5071114;28;20027;-83
2021/12/18 01:31:00;;;;;;;15.40;6.68;;;;;;;;;;5064176;28;20436;-84
2021/12/18 01:33:25;;;;;;;14.40;6.65;;;;;;;;;;5069011;28;20437;-84
2021/12/18 01:35:53;;;;;;;19.50;9.43;;;;;;;;;;5070755;28;20029;-83
2021/12/18 01:38:21;;;;;;;14.55;8.75;;;;;;;;;;5071993;28;20024;-83
2021/12/18 01:40:47;;;;;;;15.38;8.60;;;;;;;;;;5058507;28;20103;-84
2021/12/18 01:54:09;;;;;;;14.32;7.85;;;;;;;;;;5072424;28;20031;-83
2021/12/18 01:56:34;;;;;;;12.98;6.57;;;;;;;;;;5061627;28;20041;-82
2021/12/18 01:59:00;;;;;;;17.05;8.40;;;;;;;;;;5050933;28;20460;-82
2021/12/18 02:01:27;;;;;;;10.18;5.88;;;;;;;;;;5058761;28;20025;-82
2021/12/18 02:03:53;;;;;;;12.50;6.85;;;;;;;;;;5065833;28;20023;-82
2021/12/18 02:06:18;;;;;;;13.07;8.18;;;;;;;;;;5050796;28;20123;-83
2021/12/18 02:08:45;;;;;;;11.30;6.22;;;;;;;;;;5056284;28;20078;-83
2021/12/18 02:11:35;;;;;;;14.30;7.22;;;;;;;;;;5070004;28;20095;-82
2021/12/18 02:20:22;;;;;;;14.13;6.50;;;;;;;;;;5054468;28;20040;-83
2021/12/18 02:22:10;;;;;;;15.00;8.38;;;;;;;;;;5043987;28;20033;-82
2021/12/18 02:24:36;;;;;;;12.65;5.13;;;;;;;;;;5056317;28;20445;-82
2021/12/18 02:27:02;;;;;;;10.55;5.50;;;;;;;;;;5070017;28;20036;-83
2021/12/18 02:29:31;;;;;;;10.52;5.75;;;;;;;;;;5070324;28;20043;-82
2021/12/18 02:31:56;;;;;;;10.50;6.55;;;;;;;;;;5058253;28;20457;-82
2021/12/18 02:34:27;;;;;;;12.48;6.72;;;;;;;;;;5051721;28;20064;-82
2021/12/18 02:36:59;;;;;;;11.18;6.55;;;;;;;;;;5053170;28;20032;-82
2021/12/18 02:40:46;;;;;;;8.52;5.25;;;;;;;;;;5051146;28;20021;-82
2021/12/18 02:42:32;;;;;;;16.17;7.53;;;;;;;;;;5049459;28;20513;-83
2021/12/18 02:44:58;;;;;;;17.05;6.65;;;;;;;;;;5069902;28;20035;-82
2021/12/18 02:47:23;;;;;;;11.73;6.68;;;;;;;;;;5069884;28;20024;-82
2021/12/18 02:49:50;;;;;;;11.20;6.88;;;;;;;;;;5060078;28;20530;-82
2021/12/18 02:52:25;;;;;;;10.07;6.13;;;;;;;;;;5051068;28;20040;-82
2021/12/18 02:54:51;;;;;;;11.80;6.20;;;;;;;;;;5065044;28;20024;-82
2021/12/18 02:57:16;;;;;;;11.60;6.35;;;;;;;;;;5051562;28;20033;-80
2021/12/18 02:59:44;;;;;;;11.80;7.65;;;;;;;;;;5070865;28;20028;-81
2021/12/18 03:02:10;;;;;;;11.20;6.55;;;;;;;;;;5070647;28;20017;-81
2021/12/18 03:04:37;;;;;;;13.57;6.95;;;;;;;;;;5070117;28;20028;-80
2021/12/18 03:07:05;;;;;;;13.93;8.27;;;;;;;;;;5050115;28;20104;-81
2021/12/18 03:25:39;;;;;;;16.13;10.02;;;;;;;;;;5050655;28;20040;-81
2021/12/18 03:28:06;;;;;;;15.27;8.63;;;;;;;;;;5050263;28;20083;-81
2021/12/18 03:30:33;;;;;;;20.63;9.00;;;;;;;;;;5049938;28;20353;-81
2021/12/18 03:32:59;;;;;;;17.27;8.98;;;;;;;;;;5049161;28;20024;-80
2021/12/18 03:35:25;;;;;;;13.20;8.20;;;;;;;;;;5066814;28;20104;-82
2021/12/18 03:37:52;;;;;;;18.40;9.38;;;;;;;;;;5069479;28;20028;-81
2021/12/18 03:40:20;;;;;;;19.50;9.85;;;;;;;;;;5070599;28;20090;-81
2021/12/18 03:42:46;;;;;;;16.38;8.02;;;;;;;;;;5070386;28;20032;-81
2021/12/18 03:45:12;;;;;;;21.48;10.93;;;;;;;;;;5070789;28;20039;-82
2021/12/18 03:47:39;;;;;;;18.73;10.07;;;;;;;;;;5060597;28;20086;-82
2021/12/18 03:50:05;;;;;;;19.60;10.38;;;;;;;;;;5050839;28;20039;-81
2021/12/18 03:52:31;;;;;;;17.67;10.25;;;;;;;;;;5057389;28;20060;-82
2021/12/18 03:54:56;;;;;;;14.63;8.88;;;;;;;;;;5056779;28;20468;-82
2021/12/18 03:57:22;;;;;;;14.65;7.00;;;;;;;;;;5068997;28;20035;-82
2021/12/18 03:59:47;;;;;;;9.20;5.85;;;;;;;;;;5070840;28;20109;-81
2021/12/18 04:02:13;;;;;;;13.98;7.03;;;;;;;;;;5069499;28;20033;-81
2021/12/18 04:04:38;;;;;;;11.85;5.97;;;;;;;;;;5069074;28;20490;-81
2021/12/18 04:07:06;;;;;;;9.30;5.90;;;;;;;;;;5064606;28;20119;-81
2021/12/18 04:09:32;;;;;;;9.18;5.82;;;;;;;;;;5049648;28;20025;-81
2021/12/18 04:11:58;;;;;;;12.55;6.47;;;;;;;;;;5050306;28;20020;-81
2021/12/18 04:14:24;;;;;;;12.15;5.88;;;;;;;;;;5050142;28;20021;-81
2021/12/18 04:16:49;;;;;;;10.80;6.38;;;;;;;;;;5049112;28;20116;-81
2021/12/18 04:19:15;;;;;;;9.55;5.60;;;;;;;;;;5048634;28;20126;-80
2021/12/18 04:21:41;;;;;;;7.90;4.55;;;;;;;;;;5051775;28;20464;-81
2021/12/18 04:24:08;;;;;;;9.90;5.57;;;;;;;;;;5050219;28;20025;-80
2021/12/18 04:26:34;;;;;;;14.25;6.03;;;;;;;;;;5050362;28;20384;-80
2021/12/18 04:29:01;;;;;;;10.52;6.18;;;;;;;;;;5050263;28;20404;-80
2021/12/18 04:31:27;;;;;;;10.30;5.25;;;;;;;;;;5050459;28;20024;-80
2021/12/18 04:33:53;;;;;;;10.63;5.65;;;;;;;;;;5050018;28;20027;-80
2021/12/18 04:36:19;;;;;;;9.30;6.03;;;;;;;;;;5070030;28;20381;-80
2021/12/18 04:38:45;;;;;;;8.07;5.55;;;;;;;;;;5054202;28;20479;-81
2021/12/18 04:41:11;;;;;;;11.30;4.82;;;;;;;;;;5068815;28;20105;-81
2021/12/18 04:43:37;;;;;;;7.38;4.13;;;;;;;;;;5073795;28;20024;-80
2021/12/18 04:46:03;;;;;;;9.13;4.30;;;;;;;;;;5068536;28;20028;-81
2021/12/18 04:48:28;;;;;;;7.32;3.95;;;;;;;;;;5063528;28;20035;-81
2021/12/18 04:50:54;;;;;;;5.53;3.70;;;;;;;;;;5068637;28;20043;-81
2021/12/18 04:53:19;;;;;;;8.95;4.93;;;;;;;;;;5059208;28;20068;-80
2021/12/18 04:55:45;;;;;;;8.30;4.95;;;;;;;;;;5053347;28;20041;-80
2021/12/18 04:58:11;;;;;;;12.07;5.85;;;;;;;;;;5066305;28;20035;-81
2021/12/18 05:00:39;;;;;;;13.88;6.22;;;;;;;;;;5067423;28;20064;-81
2021/12/18 05:03:07;;;;;;;7.97;5.35;;;;;;;;;;5069726;28;20025;-81
2021/12/18 05:05:34;;;;;;;9.65;5.00;;;;;;;;;;5062087;28;20825;-82
2021/12/18 05:08:00;;;;;;;8.80;4.57;;;;;;;;;;5051127;28;20079;-82
2021/12/18 05:10:26;;;;;;;7.93;4.35;;;;;;;;;;5052132;28;20029;-81
2021/12/18 05:12:52;;;;;;;12.32;5.50;;;;;;;;;;5069504;28;20456;-81
2021/12/18 05:15:17;;;;;;;12.70;6.30;;;;;;;;;;5053465;28;20392;-82
2021/12/18 05:17:43;;;;;;;9.60;5.93;;;;;;;;;;5065081;28;20025;-82
2021/12/18 05:20:09;;;;;;;8.55;4.80;;;;;;;;;;5052846;28;20040;-81
2021/12/18 05:22:34;;;;;;;12.23;6.72;;;;;;;;;;5051217;28;20025;-81
2021/12/18 05:25:00;;;;;;;8.52;5.53;;;;;;;;;;5051849;28;20063;-82
2021/12/18 05:27:26;;;;;;;10.27;5.78;;;;;;;;;;5051266;28;20060;-82
2021/12/18 05:29:51;;;;;;;11.73;5.90;;;;;;;;;;5056313;28;20090;-84
2021/12/18 05:32:17;;;;;;;8.27;4.82;;;;;;;;;;5060614;28;20035;-83
2021/12/18 05:34:42;;;;;;;13.65;7.05;;;;;;;;;;5056573;28;20516;-83
2021/12/18 05:37:32;;;;;;;10.07;6.10;;;;;;;;;;5062262;28;20032;-83
2021/12/18 05:39:58;;;;;;;10.00;5.43;;;;;;;;;;5052337;28;20465;-82
2021/12/18 05:42:24;;;;;;;12.38;5.18;;;;;;;;;;5060532;28;20035;-83
2021/12/18 05:44:49;;;;;;;12.93;7.63;;;;;;;;;;5065208;28;20024;-82
2021/12/18 05:47:15;;;;;;;11.98;7.72;;;;;;;;;;5063336;28;20028;-82
2021/12/18 05:49:40;;;;;;;11.63;6.60;;;;;;;;;;5055049;28;20396;-83
2021/12/18 05:52:07;;;;;;;12.70;6.43;;;;;;;;;;5052474;28;20411;-83
2021/12/18 05:54:35;;;;;;;10.10;6.38;;;;;;;;;;5053158;28;20036;-83
2021/12/18 05:57:03;;;;;;;9.43;6.13;;;;;;;;;;5059232;28;20036;-83
2021/12/18 05:59:29;;;;;;;12.48;7.07;;;;;;;;;;5072513;28;20106;-83
2021/12/18 06:01:54;;;;;;;13.70;7.68;;;;;;;;;;5064165;28;20036;-82
2021/12/18 06:04:20;;;;;;;8.55;4.68;;;;;;;;;;5072078;28;20025;-83
2021/12/18 06:06:46;;;;;;;11.77;5.13;;;;;;;;;;5071028;28;20025;-83
2021/12/18 06:09:11;;;;;;;11.70;6.63;;;;;;;;;;5057571;28;20388;-84
2021/12/18 06:11:39;;;;;;;13.40;7.63;;;;;;;;;;5050517;28;20029;-83
2021/12/18 06:14:05;;;;;;;13.45;7.75;;;;;;;;;;5087327;28;20035;-81
2021/12/18 06:16:30;;;;;;;9.95;6.05;;;;;;;;;;5071642;28;20024;-81
2021/12/18 06:18:56;;;;;;;13.75;7.00;;;;;;;;;;5070606;28;20048;-81
2021/12/18 06:21:24;;;;;;;18.35;9.70;;;;;;;;;;5071016;28;20067;-80
2021/12/18 06:23:54;;;;;;;14.45;8.15;;;;;;;;;;5071419;28;20536;-81
2021/12/18 06:26:20;;;;;;;;;;;;;;;;;;5068633;28;20066;-81
2021/12/18 06:28:46;;;;;;;8.52;6.00;;;;;;;;;;5064965;28;20415;-81
2021/12/18 06:31:11;;;;;;;10.30;6.03;;;;;;;;;;5060679;28;20116;-81
2021/12/18 06:33:37;;;;;;;10.20;5.75;;;;;;;;;;5063511;28;20036;-80
2021/12/18 06:36:03;;;;;;;13.50;6.30;;;;;;;;;;5060688;28;20043;-81
2021/12/18 06:38:28;;;;;;;15.05;8.65;;;;;;;;;;5056814;28;21246;-83
2021/12/18 06:40:54;;;;;;;17.50;8.35;;;;;;;;;;5059785;28;20105;-82
2021/12/18 06:43:19;;;;;;;12.18;8.35;;;;;;;;;;5061805;28;20036;-82
2021/12/18 06:45:45;;;;;;;15.20;7.80;;;;;;;;;;5065887;28;20025;-84
2021/12/18 06:48:11;;;;;;;16.77;8.18;;;;;;;;;;5064355;28;20029;-83
2021/12/18 06:50:37;;;;;;;10.68;6.72;;;;;;;;;;5062530;28;20016;-82
2021/12/18 06:53:04;;;;;;;11.20;5.00;;;;;;;;;;5062610;28;20012;-82
2021/12/18 06:55:30;;;;;;;9.68;6.72;;;;;;;;;;5064736;28;20149;-83
2021/12/18 06:57:56;;;;;;;14.50;7.05;;;;;;;;;;5067014;28;20024;-83
2021/12/18 07:00:22;;;;;;;14.35;7.35;;;;;;;;;;5072342;28;20047;-82
2021/12/18 07:02:48;;;;;;;14.20;7.10;;;;;;;;;;5054886;28;20077;-83
2021/12/18 07:05:14;;;;;;;12.52;7.53;;;;;;;;;;5067967;28;20516;-83
2021/12/18 07:07:40;;;;;;;10.50;6.20;;;;;;;;;;5062475;28;20028;-83
2021/12/18 07:10:08;;;;;;;7.82;5.70;;;;;;;;;;5065753;28;20108;-83
2021/12/18 07:12:34;;;;;;;8.80;5.13;;;;;;;;;;5060762;28;20522;-82
2021/12/18 07:15:00;;;;;;;15.30;7.88;;;;;;;;;;5066965;28;20384;-83
2021/12/18 07:17:26;;;;;;;11.38;7.00;;;;;;;;;;5067323;28;20032;-80
2021/12/18 07:19:51;;;;;;;11.52;6.60;;;;;;;;;;5069311;28;20051;-79
2021/12/18 07:22:17;;;;;;;10.07;5.72;;;;;;;;;;5068073;28;20116;-79
2021/12/18 07:24:43;;;;;;;11.32;6.47;;;;;;;;;;5065077;28;20045;-80
2021/12/18 07:27:10;;;;;;;9.40;4.65;;;;;;;;;;5050556;28;20051;-80
2021/12/18 07:29:35;;;;;;;8.07;3.90;;;;;;;;;;5062459;28;20039;-78
2021/12/18 07:32:01;;;;;;;3.85;2.60;;;;;;;;;;5059946;28;20016;-79
2021/12/18 07:34:26;;;;;;;3.60;2.53;;;;;;;;;;5065537;28;20024;-80
2021/12/18 07:36:52;;;;;;;3.58;1.85;;;;;;;;;;5069337;28;20032;-80
2021/12/18 07:39:18;;;;;;;2.55;1.50;;;;;;;;;;5070183;28;20028;-81
2021/12/18 07:41:44;;;;;;;4.35;2.42;;;;;;;;;;5069163;28;20048;-80
2021/12/18 07:44:09;;;;;;;6.07;2.65;;;;;;;;;;5053698;28;20029;-81
2021/12/18 07:46:37;;;;;;;5.97;4.57;;;;;;;;;;5049514;28;20032;-80
2021/12/18 07:49:04;;;;;;;15.70;7.15;;;;;;;;;;5050290;28;20540;-81
2021/12/18 07:51:30;;;;;;;7.03;4.38;;;;;;;;;;5051357;28;20035;-80
2021/12/18 07:53:56;;;;;;;4.78;2.72;;;;;;;;;;5052840;28;20024;-79
2021/12/18 07:56:21;;;;;;;3.40;2.30;;;;;;;;;;5060180;28;20089;-80
2021/12/18 07:58:47;;;;;;;6.88;3.55;;;;;;;;;;5052618;28;20073;-80
2021/12/18 08:01:13;;;;;;;10.68;6.63;;;;;;;;;;5057204;28;20497;-80
2021/12/18 08:03:38;;;;;;;10.00;6.45;;;;;;;;;;5050522;28;20434;-81
2021/12/18 08:06:04;;;;;;;10.77;5.18;;;;;;;;;;5050979;28;20550;-81
2021/12/18 08:08:29;;;;;;;12.35;7.18;;;;;;;;;;5061370;28;20051;-80
2021/12/18 08:10:56;;;;;;;10.88;6.07;;;;;;;;;;5060952;28;20029;-80
2021/12/18 08:13:22;;;;;;;15.40;8.60;;;;;;;;;;5062976;28;20036;-81
2021/12/18 08:15:47;;;;;;;7.38;5.25;;;;;;;;;;5065248;28;20468;-79
2021/12/18 08:18:13;;;;;;;12.27;8.25;;;;;;;;;;5060244;28;20025;-81
2021/12/18 08:20:39;;;;;;;10.18;5.03;;;;;;;;;;5062179;28;20110;-81
2021/12/18 08:23:04;;;;;;;6.05;3.30;;;;;;;;;;5062306;28;20041;-81
2021/12/18 08:25:32;;;;;;;5.40;3.60;;;;;;;;;;5061112;28;20026;-79
2021/12/18 08:27:59;;;;;;;5.30;2.80;;;;;;;;;;5067908;28;20036;-81
2021/12/18 08:30:30;;;;;;;5.28;3.15;;;;;;;;;;5062176;28;20489;-80
2021/12/18 08:32:58;;;;;;;6.40;3.85;;;;;;;;;;5068793;28;20087;-80
2021/12/18 08:35:26;;;;;;;9.35;5.30;;;;;;;;;;5068800;28;20048;-81
2021/12/18 08:37:56;;;;;;;7.38;5.28;;;;;;;;;;5062130;28;20067;-80
2021/12/18 08:40:25;;;;;;;9.50;5.85;;;;;;;;;;5069242;28;20094;-80
2021/12/18 08:42:51;;;;;;;4.93;2.92;;;;;;;;;;5053237;28;20021;-81
2021/12/18 08:45:27;;;;;;;9.30;4.88;;;;;;;;;;5068971;28;20071;-81
2021/12/18 08:47:52;;;;;;;7.80;4.10;;;;;;;;;;5057051;28;20117;-81
2021/12/18 08:50:19;;;;;;;5.80;2.63;;;;;;;;;;5067509;28;20455;-80
2021/12/18 08:52:53;;;;;;;8.63;4.43;;;;;;;;;;5059850;28;20034;-81
2021/12/18 08:55:25;;;;;;;11.65;5.68;;;;;;;;;;5071659;28;20040;-81
2021/12/18 08:57:51;;;;;;;4.68;3.35;;;;;;;;;;5061406;28;20041;-81
2021/12/18 09:00:21;;;;;;;7.60;3.65;;;;;;;;;;5059332;28;20103;-81
2021/12/18 09:02:57;;;;;;;3.47;2.05;;;;;;;;;;5072924;28;20029;-80
2021/12/18 09:08:15;;;;;;;5.88;3.17;;;;;;;;;;5054798;28;20377;-81
2021/12/18 09:10:41;;;;;;;4.15;2.80;;;;;;;;;;5058845;28;20031;-83
2021/12/18 09:13:10;;;;;;;8.27;4.97;;;;;;;;;;5057182;28;20119;-84
2021/12/18 09:15:38;;;;;;;8.75;5.22;;;;;;;;;;5067764;28;20057;-85
2021/12/18 09:18:36;;;;;;;12.52;8.27;;;;;;;;;;5064698;28;20032;-86
2021/12/18 09:21:02;;;;;;;10.27;6.10;;;;;;;;;;5055046;28;20048;-84
2021/12/18 09:23:27;;;;;;;7.50;5.53;;;;;;;;;;5064641;28;20036;-85
2021/12/18 09:25:53;;;;;;;8.43;5.57;;;;;;;;;;5059183;28;20025;-84
2021/12/18 09:28:18;;;;;;;12.55;6.20;;;;;;;;;;5060017;28;20040;-84
2021/12/18 09:30:47;;;;;;;8.88;6.40;;;;;;;;;;5057567;28;20104;-84
2021/12/18 09:33:22;;;;;;;11.30;5.07;;;;;;;;;;5056475;28;20029;-84
2021/12/18 09:36:08;;;;;;;6.50;4.20;;;;;;;;;;5054558;28;20032;-83
2021/12/18 09:38:33;;;;;;;9.75;4.70;;;;;;;;;;5069690;28;20456;-80
2021/12/18 09:41:00;;;;;;;8.65;4.22;;;;;;;;;;5067004;28;20115;-81
2021/12/18 09:44:05;;;;;;;7.20;4.88;;;;;;;;;;5060334;28;20471;-81
2021/12/18 09:46:36;;;;;;;9.50;4.90;;;;;;;;;;5070228;28;20056;-80
2021/12/18 09:49:09;;;;;;;10.45;5.53;;;;;;;;;;5079860;28;20040;-84
2021/12/18 09:51:45;;;;;;;8.43;4.55;;;;;;;;;;5077936;28;20468;-81
2021/12/18 09:54:21;;;;;;;9.77;6.57;;;;;;;;;;5069631;28;20865;-82
2021/12/18 09:56:47;;;;;;;10.40;6.90;;;;;;;;;;5055940;28;20024;-78
2021/12/18 09:59:16;;;;;;;9.35;6.38;;;;;;;;;;5069259;28;20035;-80
2021/12/18 10:01:50;;;;;;;17.63;8.17;;;;;;;;;;5058877;28;20032;-80
2021/12/18 10:04:49;;;;;;;11.02;5.72;;;;;;;;;;5059050;28;20269;-81
2021/12/18 10:07:18;;;;;;;11.52;6.82;;;;;;;;;;5067630;28;20047;-81
2021/12/18 10:09:45;;;;;;;9.27;6.07;;;;;;;;;;5059766;28;20124;-80
2021/12/18 10:12:19;;;;;;;11.73;6.60;;;;;;;;;;5051936;28;20024;-80
2021/12/18 10:15:04;;;;;;;13.10;7.28;;;;;;;;;;5067714;28;20025;-80
2021/12/18 10:17:34;;;;;;;12.15;5.85;;;;;;;;;;5052215;28;20067;-79
2021/12/18 10:20:11;;;;;;;11.07;5.15;;;;;;;;;;5058449;28;20319;-81
2021/12/18 10:22:42;;;;;;;7.63;4.93;;;;;;;;;;5061289;28;20043;-82
2021/12/18 10:25:08;;;;;;;6.68;3.75;;;;;;;;;;5060970;28;20067;-81
2021/12/18 10:27:37;;;;;;;5.93;3.88;;;;;;;;;;5060911;28;20024;-79
2021/12/18 10:30:11;;;;;;;5.30;3.10;;;;;;;;;;5064337;28;20028;-80
2021/12/18 10:32:37;;;;;;;3.58;2.65;;;;;;;;;;5054663;28;20063;-79
2021/12/18 10:35:03;;;;;;;4.95;2.80;;;;;;;;;;5056961;28;20056;-79
2021/12/18 10:37:31;;;;;;;5.65;3.17;;;;;;;;;;5063021;28;20554;-81
2021/12/18 10:40:01;;;;;;;4.57;2.70;;;;;;;;;;5052482;28;20025;-81
2021/12/18 10:42:42;;;;;;;5.72;3.63;;;;;;;;;;5060018;28;20024;-80
2021/12/18 10:45:16;;;;;;;5.05;3.47;;;;;;;;;;5054460;28;20488;-79
2021/12/18 10:47:45;;;;;;;4.47;3.03;;;;;;;;;;5066028;28;20035;-80
2021/12/18 10:50:28;;;;;;;10.20;4.80;;;;;;;;;;5057192;28;20025;-79
2021/12/18 10:52:59;;;;;;;8.95;3.80;;;;;;;;;;5058565;28;20056;-81
2021/12/18 10:55:30;;;;;;;4.95;3.83;;;;;;;;;;5054506;28;20044;-79
2021/12/18 10:57:56;;;;;;;6.47;4.32;;;;;;;;;;5051841;28;20033;-80
2021/12/18 11:00:37;;;;;;;8.73;4.28;;;;;;;;;;5058486;28;20028;-80
2021/12/18 11:03:19;;;;;;;12.20;6.20;;;;;;;;;;5061552;28;20463;-80
2021/12/18 11:06:20;;;;;;;6.90;5.47;;;;;;;;;;5062646;28;20384;-81
2021/12/18 11:09:01;;;;;;;7.88;4.85;;;;;;;;;;5053437;28;20435;-81
2021/12/18 11:14:00;;;;;;;8.02;4.45;;;;;;;;;;5069862;28;20081;-81
2021/12/18 11:16:27;;;;;;;7.35;4.40;;;;;;;;;;5056778;28;20461;-79
2021/12/18 11:18:54;;;;;;;6.53;3.70;;;;;;;;;;5060935;28;20036;-81
2021/12/18 11:21:24;;;;;;;9.30;5.22;;;;;;;;;;5057370;28;20040;-81
2021/12/18 11:24:01;;;;;;;8.23;5.07;;;;;;;;;;5050979;28;20032;-82
2021/12/18 11:26:41;;;;;;;9.85;6.57;;;;;;;;;;5067955;28;20071;-83
2021/12/18 11:29:40;;;;;;;11.93;6.75;;;;;;;;;;5069373;28;20020;-83
2021/12/18 11:32:08;;;;;;;14.93;7.28;;;;;;;;;;5060390;28;20489;-84
2021/12/18 11:35:03;;;;;;;10.85;5.55;;;;;;;;;;5064487;28;20109;-82
2021/12/18 11:37:49;;;;;;;6.40;3.58;;;;;;;;;;5057119;28;20392;-82
2021/12/18 11:40:28;;;;;;;4.95;2.97;;;;;;;;;;5061725;28;20033;-79
2021/12/18 11:43:06;;;;;;;4.75;2.58;;;;;;;;;;5050038;28;20489;-80
2021/12/18 11:45:58;;;;;;;7.60;4.40;;;;;;;;;;5064300;28;20115;-80
2021/12/18 11:48:45;;;;;;;4.68;3.05;;;;;;;;;;5049288;28;20036;-80
2021/12/18 11:51:16;;;;;;;7.55;3.22;;;;;;;;;;5057783;28;20033;-81
2021/12/18 11:54:07;;;;;;;5.78;3.50;;;;;;;;;;5070176;28;20472;-81
2021/12/18 11:56:52;;;;;;;11.98;6.90;;;;;;;;;;5061460;28;20127;-80
2021/12/18 11:59:53;;;;;;;;;;;;;;;;;;;;;
2021/12/18 12:02:47;;;;;;;7.53;4.43;;;;;;;;;;5070461;28;20036;-80
2021/12/18 12:05:17;;;;;;;6.20;3.38;;;;;;;;;;5061659;28;20052;-85
2021/12/18 12:08:09;;;;;;;13.88;6.38;;;;;;;;;;5066588;28;20032;-82
2021/12/18 12:13:08;;;;;;;7.10;3.95;;;;;;;;;;5075015;28;20028;-79
2021/12/18 12:15:33;;;;;;;7.03;4.13;;;;;;;;;;5063205;28;20048;-79
2021/12/18 12:18:06;;;;;;;7.03;2.80;;;;;;;;;;5060220;28;20041;-80
2021/12/18 12:20:41;;;;;;;7.00;3.58;;;;;;;;;;5059476;28;20059;-79
2021/12/18 12:23:10;;;;;;;6.47;3.05;;;;;;;;;;5053183;28;20044;-79
2021/12/18 12:25:50;;;;;;;8.30;3.95;;;;;;;;;;5056238;28;20090;-81
2021/12/18 12:28:20;;;;;;;;;;;;;;;;;;5063908;28;20040;-80
2021/12/18 12:31:06;;;;;;;9.90;6.28;;;;;;;;;;5057428;28;20093;-80
2021/12/18 12:33:37;;;;;;;13.20;8.18;;;;;;;;;;5065839;28;20381;-79
2021/12/18 12:36:14;;;;;;;11.18;6.05;;;;;;;;;;5057949;28;20028;-80
2021/12/18 12:38:41;;;;;;;5.95;3.30;;;;;;;;;;5057432;28;20499;-81
2021/12/18 12:41:48;;;;;;;5.15;3.53;;;;;;;;;;5059934;28;20021;-80
2021/12/18 12:44:26;;;;;;;6.10;3.17;;;;;;;;;;5064574;28;20399;-80
2021/12/18 12:47:12;;;;;;;6.13;4.57;;;;;;;;;;5063341;28;20372;-81
2021/12/18 12:49:38;;;;;;;7.75;4.95;;;;;;;;;;5061997;28;20037;-81
2021/12/18 12:52:08;;;;;;;7.38;4.47;;;;;;;;;;5058866;28;20508;-80
2021/12/18 12:55:12;;;;;;;10.48;5.40;;;;;;;;;;5077851;28;20039;-81
2021/12/18 12:58:02;;;;;;;8.13;4.97;;;;;;;;;;5059615;28;20477;-81
2021/12/18 13:00:49;;;;;;;10.73;5.97;;;;;;;;;;5059660;28;20036;-83
2021/12/18 13:03:20;;;;;;;15.80;8.50;;;;;;;;;;5065237;28;20456;-81
2021/12/18 13:06:09;;;;;;;11.70;8.10;;;;;;;;;;5058923;28;20021;-82
2021/12/18 13:08:38;;;;;;;7.47;4.60;;;;;;;;;;5059135;28;20499;-82
2021/12/18 13:11:33;;;;;;;12.30;7.45;;;;;;;;;;5079101;28;20073;-82
2021/12/18 13:14:16;;;;;;;8.82;5.60;;;;;;;;;;5060008;28;20391;-82
2021/12/18 13:17:03;;;;;;;7.20;3.58;;;;;;;;;;5054118;28;20380;-80
2021/12/18 13:19:31;;;;;;;11.95;8.57;;;;;;;;;;5057667;28;20136;-78
2021/12/18 13:21:56;;;;;;;5.90;3.63;;;;;;;;;;5060049;28;20533;-81
2021/12/18 13:24:21;;;;;;;6.95;4.70;;;;;;;;;;5057364;28;20028;-80
2021/12/18 13:26:47;;;;;;;10.13;5.95;;;;;;;;;;5061046;28;20468;-81
2021/12/18 13:29:24;;;;;;;5.30;3.25;;;;;;;;;;5064172;28;20029;-80
2021/12/18 13:31:56;;;;;;;3.65;2.22;;;;;;;;;;5078285;28;20077;-80
2021/12/18 13:34:27;;;;;;;5.00;2.88;;;;;;;;;;5071606;28;20029;-80
2021/12/18 13:36:55;;;;;;;4.70;3.33;;;;;;;;;;5056209;28;20039;-82
2021/12/18 13:39:23;;;;;;;8.15;4.53;;;;;;;;;;5060076;28;20381;-81
2021/12/18 13:42:08;;;;;;;5.78;4.03;;;;;;;;;;5056785;28;20029;-80
2021/12/18 13:44:52;;;;;;;7.15;4.43;;;;;;;;;;5055541;28;20037;-82
2021/12/18 13:47:18;;;;;;;9.80;5.65;;;;;;;;;;5061386;28;20423;-80
2021/12/18 13:50:02;;;;;;;5.78;4.18;;;;;;;;;;5065642;28;20029;-79
2021/12/18 13:53:09;;;;;;;6.10;3.30;;;;;;;;;;5061898;28;20445;-82
2021/12/18 13:55:44;;;;;;;6.47;4.38;;;;;;;;;;5040659;28;20044;-82
2021/12/18 13:58:26;;;;;;;12.10;7.82;;;;;;;;;;5058652;28;20459;-80
2021/12/18 14:01:10;;;;;;;12.32;6.85;;;;;;;;;;5058029;28;20124;-81
2021/12/18 14:03:55;;;;;;;12.07;7.43;;;;;;;;;;5070847;28;20082;-82
2021/12/18 14:09:35;;;;;;;16.08;8.50;;;;;;;;;;5050174;28;20045;-80
2021/12/18 14:12:07;;;;;;;10.23;6.50;;;;;;;;;;5066645;28;20028;-81
2021/12/18 14:14:51;;;;;;;12.27;8.50;;;;;;;;;;5050697;28;20029;-81
2021/12/18 14:18:05;;;;;;;;;;;;;;;;;;;;;
2021/12/18 14:21:12;;;;;;;8.43;4.72;;;;;;;;;;5059603;28;20511;-82
2021/12/18 14:23:41;;;;;;;8.85;5.93;;;;;;;;;;5079164;28;20106;-81
2021/12/18 14:29:32;;;;;;;15.27;8.68;;;;;;;;;;5060315;28;20090;-82
2021/12/18 14:32:04;;;;;;;13.23;7.38;;;;;;;;;;5052102;28;20021;-81
2021/12/18 14:35:07;;;;;;;4.25;2.70;;;;;;;;;;5054797;28;20158;-81
2021/12/18 14:37:57;;;;;;;7.45;5.03;;;;;;;;;;5062204;28;20035;-81
2021/12/18 14:40:31;;;;;;;7.68;3.15;;;;;;;;;;5065372;28;20142;-82
2021/12/18 14:43:48;;;;;;;6.85;4.15;;;;;;;;;;5067557;28;20472;-81
2021/12/18 14:46:34;;;;;;;7.28;3.70;;;;;;;;;;5051140;28;20056;-81
2021/12/18 14:49:22;;;;;;;8.75;3.80;;;;;;;;;;5065918;28;20043;-80
2021/12/18 14:52:08;;;;;;;11.43;6.25;;;;;;;;;;5060923;28;20033;-81
2021/12/18 14:55:06;;;;;;;12.73;7.13;;;;;;;;;;5066018;28;20504;-80
2021/12/18 14:58:20;;;;;;;12.23;7.65;;;;;;;;;;5068408;28;20040;-82
2021/12/18 15:01:45;;;;;;;9.60;5.18;;;;;;;;;;5053529;28;20040;-82
2021/12/18 15:04:44;;;;;;;8.88;3.97;;;;;;;;;;5056881;28;20396;-81
2021/12/18 15:07:30;;;;;;;8.10;5.55;;;;;;;;;;5043996;28;20110;-82
2021/12/18 15:10:06;;;;;;;5.07;3.65;;;;;;;;;;5068962;28;20035;-81
2021/12/18 15:12:34;;;;;;;8.77;4.22;;;;;;;;;;5061309;28;20035;-83
2021/12/18 15:15:12;;;;;;;7.78;4.45;;;;;;;;;;5059307;28;21210;-83
2021/12/18 15:17:44;;;;;;;10.88;4.70;;;;;;;;;;5080401;28;20111;-83
2021/12/18 15:20:35;;;;;;;6.70;4.88;;;;;;;;;;5057561;28;20045;-82
2021/12/18 15:23:08;;;;;;;9.98;5.20;;;;;;;;;;5060098;28;20032;-81
2021/12/18 15:25:36;;;;;;;14.80;7.43;;;;;;;;;;5070560;28;20457;-82
2021/12/18 15:28:35;;;;;;;;;;;;;;;;;;;;;
2021/12/18 15:31:01;;;;;;;;;;;;;;;;;;5064638;28;20027;-82
2021/12/18 15:33:49;;;;;;;7.35;4.43;;;;;;;;;;5061762;28;20381;-82
2021/12/18 15:36:19;;;;;;;6.38;3.00;;;;;;;;;;5072173;28;20072;-81
2021/12/18 15:39:33;;;;;;;;;;;;;;;;;;;;;
2021/12/18 15:45:32;;;;;;;6.70;3.83;;;;;;;;;;4975178;28;20056;-82
2021/12/18 15:47:57;;;;;;;10.38;6.78;;;;;;;;;;5057345;28;20082;-81
2021/12/18 15:50:24;;;;;;;13.65;6.57;;;;;;;;;;5049950;28;20028;-80
2021/12/18 15:56:34;;;;;;;19.48;10.55;;;;;;;;;;4999966;28;20418;-83
2021/12/18 15:59:24;;;;;;;10.57;6.65;;;;;;;;;;4988192;28;20498;-82
2021/12/18 16:08:28;;;;;;;8.73;5.55;;;;;;;;;;4987870;28;20038;-83
2021/12/18 16:11:25;;;;;;;11.52;6.15;;;;;;;;;;4996950;28;20036;-85
2021/12/18 16:14:00;;;;;;;10.68;6.07;;;;;;;;;;5008859;28;20034;-85
2021/12/18 16:16:48;;;;;;;9.82;6.13;;;;;;;;;;5004045;28;20034;-83